Time,TemperatureF,DewpointF,PressureIn,WindDirection,WindDirectionDegrees,WindSpeedMPH,WindSpeedGustMPH,Humidity,HourlyPrecipIn,Conditions,Clouds,dailyrainin,SoftwareType,DateUTC
2013-08-10 00:00:00,57.3,51.4,30.02,NE,40,0.0,1.0,81,0.00,,,0.00,VWS V14.01,2013-08-10 05:00:00,
2013-08-10 00:01:00,55.6,52.0,30.02,NE,34,0.0,0.0,88,0.00,,,0.00,VWS V14.01,2013-08-10 05:01:00,
2013-08-10 00:06:00,55.7,52.1,30.02,NE,34,0.0,0.0,88,0.00,,,0.00,VWS V14.01,2013-08-10 05:06:00,
2013-08-10 00:11:00,55.7,51.8,30.02,NE,34,1.0,1.0,87,0.00,,,0.00,VWS V14.01,2013-08-10 05:11:00,
2013-08-10 00:15:00,56.5,51.0,30.02,NE,40,1.0,1.0,82,0.00,,,0.00,VWS V14.01,2013-08-10 05:15:00,
2013-08-10 00:16:00,55.7,51.8,30.03,NE,34,0.0,0.0,87,0.00,,,0.00,VWS V14.01,2013-08-10 05:16:00,
2013-08-10 00:21:00,55.5,51.6,30.03,NE,34,0.0,1.0,87,0.00,,,0.00,VWS V14.01,2013-08-10 05:21:00,
2013-08-10 00:26:00,55.3,51.7,30.02,NE,34,1.0,1.0,88,0.00,,,0.00,VWS V14.01,2013-08-10 05:26:00,
2013-08-10 00:30:00,56.2,51.3,30.02,NE,34,1.0,2.0,84,0.00,,,0.00,VWS V14.01,2013-08-10 05:30:00,
2013-08-10 00:31:00,55.2,51.6,30.03,NE,34,1.0,1.0,88,0.00,,,0.00,VWS V14.01,2013-08-10 05:31:00,
2013-08-10 00:36:00,55.0,51.4,30.03,NE,34,0.0,1.0,88,0.00,,,0.00,VWS V14.01,2013-08-10 05:36:00,
2013-08-10 00:41:00,54.8,51.2,30.03,ENE,78,2.0,3.0,88,0.00,,,0.00,VWS V14.01,2013-08-10 05:41:00,
2013-08-10 00:45:00,55.5,51.6,30.02,NE,34,1.0,2.0,87,0.00,,,0.00,VWS V14.01,2013-08-10 05:45:00,
2013-08-10 00:46:00,54.7,51.4,30.03,ENE,78,1.0,2.0,89,0.00,,,0.00,VWS V14.01,2013-08-10 05:46:00,
2013-08-10 00:51:00,54.6,51.3,30.03,SE,132,2.0,3.0,89,0.00,,,0.00,VWS V14.01,2013-08-10 05:51:00,
2013-08-10 00:56:00,54.3,51.0,30.03,SE,146,1.0,3.0,89,0.00,,,0.00,VWS V14.01,2013-08-10 05:56:00,
2013-08-10 01:00:00,55.6,52.0,30.02,NE,34,0.0,2.0,88,0.00,,,0.00,VWS V14.01,2013-08-10 06:00:00,
2013-08-10 01:01:00,54.0,50.8,30.03,SSE,165,1.0,3.0,89,0.00,,,0.00,VWS V14.01,2013-08-10 06:01:00,
2013-08-10 01:06:00,53.9,51.0,30.03,SSE,168,1.0,3.0,90,0.00,,,0.00,VWS V14.01,2013-08-10 06:06:00,
2013-08-10 01:11:00,53.8,50.8,30.03,South,174,2.0,5.0,90,0.00,,,0.00,VWS V14.01,2013-08-10 06:11:00,
2013-08-10 01:15:00,55.7,51.8,30.03,NE,34,0.0,2.0,87,0.00,,,0.00,VWS V14.01,2013-08-10 06:15:00,
2013-08-10 01:16:00,53.7,50.8,30.03,South,170,1.0,2.0,90,0.00,,,0.00,VWS V14.01,2013-08-10 06:16:00,
2013-08-10 01:21:00,53.7,50.8,30.03,South,170,1.0,3.0,90,0.00,,,0.00,VWS V14.01,2013-08-10 06:21:00,
2013-08-10 01:26:00,53.7,50.8,30.04,South,170,2.0,3.0,90,0.00,,,0.00,VWS V14.01,2013-08-10 06:26:00,
2013-08-10 01:30:00,55.2,51.6,30.02,NE,34,1.0,1.0,88,0.00,,,0.00,VWS V14.01,2013-08-10 06:30:00,
2013-08-10 01:31:00,53.7,50.8,30.04,South,170,2.0,2.0,90,0.00,,,0.00,VWS V14.01,2013-08-10 06:31:00,
2013-08-10 01:36:00,53.7,50.8,30.04,South,170,1.0,2.0,90,0.00,,,0.00,VWS V14.01,2013-08-10 06:36:00,
2013-08-10 01:41:00,53.7,50.8,30.04,South,179,1.0,3.0,90,0.00,,,0.00,VWS V14.01,2013-08-10 06:41:00,
2013-08-10 01:45:00,54.7,51.4,30.03,ENE,78,1.0,3.0,89,0.00,,,0.00,VWS V14.01,2013-08-10 06:45:00,
2013-08-10 01:46:00,53.6,50.7,30.04,South,179,0.0,0.0,90,0.00,,,0.00,VWS V14.01,2013-08-10 06:46:00,
2013-08-10 01:51:00,53.5,50.5,30.04,South,179,0.0,2.0,90,0.00,,,0.00,VWS V14.01,2013-08-10 06:51:00,
2013-08-10 01:56:00,53.3,50.4,30.04,South,179,0.0,2.0,90,0.00,,,0.00,VWS V14.01,2013-08-10 06:56:00,
2013-08-10 02:00:00,54.1,50.8,30.03,SSE,166,2.0,3.0,89,0.00,,,0.00,VWS V14.01,2013-08-10 07:00:00,
2013-08-10 02:01:00,53.1,50.2,30.03,South,179,1.0,1.0,90,0.00,,,0.00,VWS V14.01,2013-08-10 07:01:00,
2013-08-10 02:06:00,52.8,49.9,30.03,South,179,0.0,2.0,90,0.00,,,0.00,VWS V14.01,2013-08-10 07:06:00,
2013-08-10 02:11:00,52.6,50.0,30.03,South,179,1.0,2.0,91,0.00,,,0.00,VWS V14.01,2013-08-10 07:11:00,
2013-08-10 02:15:00,53.7,50.8,30.03,South,170,1.0,5.0,90,0.00,,,0.00,VWS V14.01,2013-08-10 07:15:00,
2013-08-10 02:16:00,52.4,49.8,30.03,South,179,0.0,0.0,91,0.00,,,0.00,VWS V14.01,2013-08-10 07:16:00,
2013-08-10 02:21:00,52.3,49.7,30.03,South,179,0.0,0.0,91,0.00,,,0.00,VWS V14.01,2013-08-10 07:21:00,
2013-08-10 02:26:00,52.2,49.6,30.03,South,179,0.0,1.0,91,0.00,,,0.00,VWS V14.01,2013-08-10 07:26:00,
2013-08-10 02:30:00,53.7,50.8,30.04,South,170,1.0,3.0,90,0.00,,,0.00,VWS V14.01,2013-08-10 07:30:00,
2013-08-10 02:31:00,52.1,49.8,30.03,South,179,0.0,1.0,92,0.00,,,0.00,VWS V14.01,2013-08-10 07:31:00,
2013-08-10 02:36:00,52.0,49.7,30.03,South,179,0.0,1.0,92,0.00,,,0.00,VWS V14.01,2013-08-10 07:36:00,
2013-08-10 02:41:00,51.8,49.5,30.04,South,179,0.0,1.0,92,0.00,,,0.00,VWS V14.01,2013-08-10 07:41:00,
2013-08-10 02:45:00,53.6,50.7,30.04,South,179,0.0,3.0,90,0.00,,,0.00,VWS V14.01,2013-08-10 07:45:00,
2013-08-10 02:46:00,51.7,49.4,30.03,South,179,1.0,2.0,92,0.00,,,0.00,VWS V14.01,2013-08-10 07:46:00,
2013-08-10 02:51:00,51.7,49.7,30.04,South,179,0.0,2.0,93,0.00,,,0.00,VWS V14.01,2013-08-10 07:51:00,
2013-08-10 02:56:00,51.5,49.5,30.04,South,179,0.0,2.0,93,0.00,,,0.00,VWS V14.01,2013-08-10 07:56:00,
2013-08-10 03:00:00,53.1,50.2,30.04,South,179,1.0,2.0,90,0.00,,,0.00,VWS V14.01,2013-08-10 08:00:00,
2013-08-10 03:01:00,51.4,49.4,30.04,South,179,0.0,0.0,93,0.00,,,0.00,VWS V14.01,2013-08-10 08:01:00,
2013-08-10 03:06:00,51.3,49.3,30.04,South,179,1.0,2.0,93,0.00,,,0.00,VWS V14.01,2013-08-10 08:06:00,
2013-08-10 03:11:00,51.2,49.2,30.04,South,179,0.0,2.0,93,0.00,,,0.00,VWS V14.01,2013-08-10 08:11:00,
2013-08-10 03:15:00,52.5,49.9,30.03,South,179,0.0,2.0,91,0.00,,,0.00,VWS V14.01,2013-08-10 08:15:00,
2013-08-10 03:16:00,51.1,49.1,30.04,South,179,1.0,1.0,93,0.00,,,0.00,VWS V14.01,2013-08-10 08:16:00,
2013-08-10 03:21:00,51.0,49.0,30.04,South,179,1.0,2.0,93,0.00,,,0.00,VWS V14.01,2013-08-10 08:21:00,
2013-08-10 03:26:00,50.9,48.9,30.04,South,179,0.0,2.0,93,0.00,,,0.00,VWS V14.01,2013-08-10 08:26:00,
2013-08-10 03:30:00,52.1,49.8,30.03,South,179,1.0,1.0,92,0.00,,,0.00,VWS V14.01,2013-08-10 08:30:00,
2013-08-10 03:31:00,50.7,48.7,30.04,South,179,0.0,1.0,93,0.00,,,0.00,VWS V14.01,2013-08-10 08:31:00,
2013-08-10 03:36:00,50.6,48.6,30.04,South,179,1.0,1.0,93,0.00,,,0.00,VWS V14.01,2013-08-10 08:36:00,
2013-08-10 03:41:00,50.5,48.5,30.04,South,179,1.0,2.0,93,0.00,,,0.00,VWS V14.01,2013-08-10 08:41:00,
2013-08-10 03:45:00,51.7,49.4,30.03,South,179,1.0,1.0,92,0.00,,,0.00,VWS V14.01,2013-08-10 08:45:00,
2013-08-10 03:46:00,50.4,48.4,30.04,South,179,1.0,1.0,93,0.00,,,0.00,VWS V14.01,2013-08-10 08:46:00,
2013-08-10 03:51:00,50.3,48.3,30.04,South,179,0.0,1.0,93,0.00,,,0.00,VWS V14.01,2013-08-10 08:51:00,
2013-08-10 03:56:00,50.1,48.1,30.04,South,179,0.0,1.0,93,0.00,,,0.00,VWS V14.01,2013-08-10 08:56:00,
2013-08-10 04:00:00,51.4,49.4,30.04,South,179,0.0,2.0,93,0.00,,,0.00,VWS V14.01,2013-08-10 09:00:00,
2013-08-10 04:01:00,50.0,48.3,30.04,South,179,0.0,0.0,94,0.00,,,0.00,VWS V14.01,2013-08-10 09:01:00,
2013-08-10 04:06:00,50.0,48.3,30.04,South,179,0.0,0.0,94,0.00,,,0.00,VWS V14.01,2013-08-10 09:06:00,
2013-08-10 04:11:00,50.0,48.3,30.04,South,179,0.0,0.0,94,0.00,,,0.00,VWS V14.01,2013-08-10 09:11:00,
2013-08-10 04:15:00,51.1,49.1,30.04,South,179,1.0,2.0,93,0.00,,,0.00,VWS V14.01,2013-08-10 09:15:00,
2013-08-10 04:16:00,49.9,48.2,30.04,South,179,0.0,0.0,94,0.00,,,0.00,VWS V14.01,2013-08-10 09:16:00,
2013-08-10 04:21:00,49.9,48.2,30.04,South,179,0.0,0.0,94,0.00,,,0.00,VWS V14.01,2013-08-10 09:21:00,
2013-08-10 04:26:00,50.0,48.3,30.03,South,179,0.0,0.0,94,0.00,,,0.00,VWS V14.01,2013-08-10 09:26:00,
2013-08-10 04:30:00,50.8,48.8,30.04,South,179,0.0,2.0,93,0.00,,,0.00,VWS V14.01,2013-08-10 09:30:00,
2013-08-10 04:31:00,49.9,48.2,30.03,South,179,0.0,0.0,94,0.00,,,0.00,VWS V14.01,2013-08-10 09:31:00,
2013-08-10 04:36:00,50.0,48.3,30.03,South,179,0.0,0.0,94,0.00,,,0.00,VWS V14.01,2013-08-10 09:36:00,
2013-08-10 04:41:00,49.9,48.2,30.03,South,179,0.0,0.0,94,0.00,,,0.00,VWS V14.01,2013-08-10 09:41:00,
2013-08-10 04:45:00,50.4,48.4,30.04,South,179,0.0,2.0,93,0.00,,,0.00,VWS V14.01,2013-08-10 09:45:00,
2013-08-10 04:46:00,50.0,48.5,30.03,South,179,0.0,0.0,95,0.00,,,0.00,VWS V14.01,2013-08-10 09:46:00,
2013-08-10 04:51:00,50.1,48.6,30.03,South,179,0.0,0.0,95,0.00,,,0.00,VWS V14.01,2013-08-10 09:51:00,
2013-08-10 04:56:00,50.0,48.3,30.03,South,179,0.0,0.0,94,0.00,,,0.00,VWS V14.01,2013-08-10 09:56:00,
2013-08-10 05:00:00,50.0,48.3,30.04,South,179,0.0,1.0,94,0.00,,,0.00,VWS V14.01,2013-08-10 10:00:00,
2013-08-10 05:01:00,49.9,48.4,30.03,South,179,0.0,0.0,95,0.00,,,0.00,VWS V14.01,2013-08-10 10:01:00,
2013-08-10 05:06:00,49.9,48.4,30.03,South,179,0.0,0.0,95,0.00,,,0.00,VWS V14.01,2013-08-10 10:06:00,
2013-08-10 05:11:00,50.0,48.5,30.02,South,179,0.0,0.0,95,0.00,,,0.00,VWS V14.01,2013-08-10 10:11:00,
2013-08-10 05:15:00,49.9,48.2,30.04,South,179,0.0,0.0,94,0.00,,,0.00,VWS V14.01,2013-08-10 10:15:00,
2013-08-10 05:16:00,50.1,48.6,30.02,South,179,0.0,0.0,95,0.00,,,0.00,VWS V14.01,2013-08-10 10:16:00,
2013-08-10 05:21:00,50.0,48.5,30.03,South,179,0.0,0.0,95,0.00,,,0.00,VWS V14.01,2013-08-10 10:21:00,
2013-08-10 05:26:00,50.0,48.5,30.02,South,179,0.0,0.0,95,0.00,,,0.00,VWS V14.01,2013-08-10 10:26:00,
2013-08-10 05:30:00,49.9,48.2,30.03,South,179,0.0,0.0,94,0.00,,,0.00,VWS V14.01,2013-08-10 10:30:00,
2013-08-10 05:31:00,50.1,48.6,30.02,South,179,0.0,0.0,95,0.00,,,0.00,VWS V14.01,2013-08-10 10:31:00,
2013-08-10 05:36:00,50.4,48.9,30.02,South,179,0.0,0.0,95,0.00,,,0.00,VWS V14.01,2013-08-10 10:36:00,
2013-08-10 05:41:00,50.3,48.8,30.02,South,179,0.0,0.0,95,0.00,,,0.00,VWS V14.01,2013-08-10 10:41:00,
2013-08-10 05:45:00,49.9,48.2,30.03,South,179,0.0,0.0,94,0.00,,,0.00,VWS V14.01,2013-08-10 10:45:00,
2013-08-10 05:46:00,50.2,48.7,30.02,South,179,0.0,1.0,95,0.00,,,0.00,VWS V14.01,2013-08-10 10:46:00,
2013-08-10 05:51:00,50.2,48.7,30.01,South,179,0.0,1.0,95,0.00,,,0.00,VWS V14.01,2013-08-10 10:51:00,
2013-08-10 05:56:00,50.0,48.5,30.01,South,179,0.0,1.0,95,0.00,,,0.00,VWS V14.01,2013-08-10 10:56:00,
2013-08-10 06:00:00,49.9,48.4,30.03,South,179,0.0,0.0,95,0.00,,,0.00,VWS V14.01,2013-08-10 11:00:00,
2013-08-10 06:01:00,49.9,48.4,30.01,South,179,0.0,0.0,95,0.00,,,0.00,VWS V14.01,2013-08-10 11:01:00,
2013-08-10 06:06:00,49.8,48.3,30.01,South,179,0.0,0.0,95,0.00,,,0.00,VWS V14.01,2013-08-10 11:06:00,
2013-08-10 06:11:00,49.7,48.2,30.01,South,179,0.0,0.0,95,0.00,,,0.00,VWS V14.01,2013-08-10 11:11:00,
2013-08-10 06:15:00,50.1,48.6,30.02,South,179,0.0,0.0,95,0.00,,,0.00,VWS V14.01,2013-08-10 11:15:00,
2013-08-10 06:16:00,49.7,48.2,30.01,South,179,0.0,0.0,95,0.00,,,0.00,VWS V14.01,2013-08-10 11:16:00,
2013-08-10 06:21:00,49.5,48.0,30.01,South,179,0.0,0.0,95,0.00,,,0.00,VWS V14.01,2013-08-10 11:21:00,
2013-08-10 06:26:00,49.6,48.2,30.01,South,179,0.0,0.0,95,0.00,,,0.00,VWS V14.01,2013-08-10 11:26:00,
2013-08-10 06:30:00,50.1,48.6,30.02,South,179,0.0,0.0,95,0.00,,,0.00,VWS V14.01,2013-08-10 11:30:00,
2013-08-10 06:31:00,49.8,48.3,30.01,South,179,1.0,2.0,95,0.00,,,0.00,VWS V14.01,2013-08-10 11:31:00,
2013-08-10 06:36:00,50.0,48.5,30.01,South,179,1.0,2.0,95,0.00,,,0.00,VWS V14.01,2013-08-10 11:36:00,
2013-08-10 06:41:00,50.3,49.1,30.01,South,179,1.0,3.0,96,0.00,,,0.00,VWS V14.01,2013-08-10 11:41:00,
2013-08-10 06:45:00,50.2,48.7,30.02,South,179,0.0,1.0,95,0.00,,,0.00,VWS V14.01,2013-08-10 11:45:00,
2013-08-10 06:46:00,50.6,49.4,30.01,South,179,1.0,2.0,96,0.00,,,0.00,VWS V14.01,2013-08-10 11:46:00,
2013-08-10 06:51:00,50.7,49.2,30.02,SSE,147,2.0,3.0,95,0.00,,,0.00,VWS V14.01,2013-08-10 11:51:00,
2013-08-10 06:56:00,50.6,49.1,30.02,SSE,153,3.0,3.0,95,0.00,,,0.00,VWS V14.01,2013-08-10 11:56:00,
2013-08-10 07:00:00,49.9,48.4,30.01,South,179,0.0,1.0,95,0.00,,,0.00,VWS V14.01,2013-08-10 12:00:00,
2013-08-10 07:01:00,50.7,49.2,30.02,SSE,158,3.0,3.0,95,0.00,,,0.00,VWS V14.01,2013-08-10 12:01:00,
2013-08-10 07:06:00,50.9,49.4,30.02,SSE,155,2.0,3.0,95,0.00,,,0.00,VWS V14.01,2013-08-10 12:06:00,
2013-08-10 07:11:00,51.0,49.5,30.02,SE,142,3.0,6.0,95,0.00,,,0.00,VWS V14.01,2013-08-10 12:11:00,
2013-08-10 07:15:00,49.7,48.2,30.01,South,179,0.0,0.0,95,0.00,,,0.00,VWS V14.01,2013-08-10 12:15:00,
2013-08-10 07:16:00,51.2,49.7,30.02,SSE,150,2.0,4.0,95,0.00,,,0.00,VWS V14.01,2013-08-10 12:16:00,
2013-08-10 07:21:00,51.4,49.9,30.02,SE,145,4.0,6.0,95,0.00,,,0.00,VWS V14.01,2013-08-10 12:21:00,
2013-08-10 07:26:00,51.6,50.1,30.02,SE,144,4.0,6.0,95,0.00,,,0.00,VWS V14.01,2013-08-10 12:26:00,
2013-08-10 07:30:00,49.8,48.3,30.01,South,179,2.0,2.0,95,0.00,,,0.00,VWS V14.01,2013-08-10 12:30:00,
2013-08-10 07:31:00,51.8,50.3,30.02,SSE,155,3.0,3.0,95,0.00,,,0.00,VWS V14.01,2013-08-10 12:31:00,
2013-08-10 07:36:00,52.0,50.5,30.02,SE,138,4.0,6.0,95,0.00,,,0.00,VWS V14.01,2013-08-10 12:36:00,
2013-08-10 07:41:00,52.2,50.7,30.02,SSE,162,5.0,7.0,95,0.00,,,0.00,VWS V14.01,2013-08-10 12:41:00,
2013-08-10 07:45:00,50.6,49.4,30.02,South,179,2.0,3.0,96,0.00,,,0.00,VWS V14.01,2013-08-10 12:45:00,
2013-08-10 07:46:00,52.5,51.0,30.02,SSE,167,3.0,6.0,95,0.00,,,0.00,VWS V14.01,2013-08-10 12:46:00,
2013-08-10 07:51:00,52.8,51.3,30.02,SSE,151,2.0,6.0,95,0.00,,,0.00,VWS V14.01,2013-08-10 12:51:00,
2013-08-10 07:56:00,53.1,51.6,30.02,SE,135,2.0,6.0,95,0.00,,,0.00,VWS V14.01,2013-08-10 12:56:00,
2013-08-10 08:00:00,50.7,49.2,30.02,SSE,153,2.0,3.0,95,0.00,,,0.00,VWS V14.01,2013-08-10 13:00:00,
2013-08-10 08:01:00,53.4,51.6,30.02,SE,142,4.0,4.0,94,0.00,,,0.00,VWS V14.01,2013-08-10 13:01:00,
2013-08-10 08:06:00,53.7,51.9,30.02,SE,134,2.0,5.0,94,0.00,,,0.00,VWS V14.01,2013-08-10 13:06:00,
2013-08-10 08:11:00,54.0,52.2,30.02,SSE,150,3.0,5.0,94,0.00,,,0.00,VWS V14.01,2013-08-10 13:11:00,
2013-08-10 08:15:00,51.2,49.7,30.02,SSE,149,4.0,6.0,95,0.00,,,0.00,VWS V14.01,2013-08-10 13:15:00,
2013-08-10 08:16:00,54.5,52.7,30.02,SE,135,2.0,3.0,94,0.00,,,0.00,VWS V14.01,2013-08-10 13:16:00,
2013-08-10 08:21:00,55.2,53.4,30.02,SSE,151,2.0,5.0,94,0.00,,,0.00,VWS V14.01,2013-08-10 13:21:00,
2013-08-10 08:26:00,55.9,53.8,30.02,SSE,153,2.0,5.0,93,0.00,,,0.00,VWS V14.01,2013-08-10 13:26:00,
2013-08-10 08:30:00,51.7,50.2,30.02,SSE,160,2.0,6.0,95,0.00,,,0.00,VWS V14.01,2013-08-10 13:30:00,
2013-08-10 08:31:00,56.5,54.1,30.02,SSE,161,3.0,4.0,92,0.00,,,0.00,VWS V14.01,2013-08-10 13:31:00,
2013-08-10 08:36:00,56.8,54.1,30.02,SSE,168,2.0,7.0,91,0.00,,,0.00,VWS V14.01,2013-08-10 13:36:00,
2013-08-10 08:41:00,57.3,54.3,30.02,SSE,165,2.0,7.0,90,0.00,,,0.00,VWS V14.01,2013-08-10 13:41:00,
2013-08-10 08:45:00,52.5,51.0,30.02,SE,145,4.0,7.0,95,0.00,,,0.00,VWS V14.01,2013-08-10 13:45:00,
2013-08-10 08:46:00,57.8,54.5,30.02,SSE,149,4.0,5.0,89,0.00,,,0.00,VWS V14.01,2013-08-10 13:46:00,
2013-08-10 08:51:00,58.3,55.0,30.02,SSE,152,2.0,6.0,89,0.00,,,0.00,VWS V14.01,2013-08-10 13:51:00,
2013-08-10 08:56:00,58.8,55.2,30.02,SE,136,3.0,6.0,88,0.00,,,0.00,VWS V14.01,2013-08-10 13:56:00,
2013-08-10 09:00:00,53.4,51.9,30.02,SE,142,2.0,6.0,95,0.00,,,0.00,VWS V14.01,2013-08-10 14:00:00,
2013-08-10 09:01:00,59.3,55.3,30.02,SE,142,4.0,5.0,87,0.00,,,0.00,VWS V14.01,2013-08-10 14:01:00,
2013-08-10 09:06:00,59.7,55.4,30.02,SSE,168,2.0,7.0,86,0.00,,,0.00,VWS V14.01,2013-08-10 14:06:00,
2013-08-10 09:11:00,60.2,55.9,30.02,SSE,163,6.0,7.0,86,0.00,,,0.00,VWS V14.01,2013-08-10 14:11:00,
2013-08-10 09:15:00,54.4,52.3,30.02,SE,127,3.0,5.0,93,0.00,,,0.00,VWS V14.01,2013-08-10 14:15:00,
2013-08-10 09:16:00,60.4,55.5,30.01,SSE,163,3.0,7.0,84,0.00,,,0.00,VWS V14.01,2013-08-10 14:16:00,
2013-08-10 09:21:00,60.8,55.5,30.01,SE,140,2.0,7.0,83,0.00,,,0.00,VWS V14.01,2013-08-10 14:21:00,
2013-08-10 09:26:00,61.2,55.9,30.01,SSW,203,3.0,7.0,83,0.00,,,0.00,VWS V14.01,2013-08-10 14:26:00,
2013-08-10 09:30:00,56.4,54.0,30.02,SE,143,2.0,5.0,92,0.00,,,0.00,VWS V14.01,2013-08-10 14:30:00,
2013-08-10 09:31:00,61.5,55.5,30.01,South,173,2.0,6.0,81,0.00,,,0.00,VWS V14.01,2013-08-10 14:31:00,
2013-08-10 09:36:00,62.0,56.0,30.01,SE,133,7.0,9.0,81,0.00,,,0.00,VWS V14.01,2013-08-10 14:36:00,
2013-08-10 09:41:00,62.3,56.3,30.01,South,174,5.0,9.0,81,0.00,,,0.00,VWS V14.01,2013-08-10 14:41:00,
2013-08-10 09:45:00,57.8,54.8,30.02,SSE,159,3.0,7.0,90,0.00,,,0.00,VWS V14.01,2013-08-10 14:45:00,
2013-08-10 09:46:00,62.6,56.6,30.01,South,169,3.0,5.0,81,0.00,,,0.00,VWS V14.01,2013-08-10 14:46:00,
2013-08-10 09:51:00,62.9,56.2,30.01,South,188,2.0,5.0,79,0.00,,,0.00,VWS V14.01,2013-08-10 14:51:00,
2013-08-10 09:56:00,63.2,55.8,30.01,SSW,207,2.0,7.0,77,0.00,,,0.00,VWS V14.01,2013-08-10 14:56:00,
2013-08-10 10:00:00,59.2,55.2,30.02,SSE,152,2.0,6.0,87,0.00,,,0.00,VWS V14.01,2013-08-10 15:00:00,
2013-08-10 10:01:00,63.3,55.5,30.01,SW,219,1.0,3.0,76,0.00,,,0.00,VWS V14.01,2013-08-10 15:01:00,
2013-08-10 10:06:00,63.5,55.7,30.01,WSW,237,2.0,3.0,76,0.00,,,0.00,VWS V14.01,2013-08-10 15:06:00,
2013-08-10 10:11:00,63.8,56.3,30.01,WSW,258,2.0,4.0,77,0.00,,,0.00,VWS V14.01,2013-08-10 15:11:00,
2013-08-10 10:15:00,60.4,55.5,30.01,South,175,2.0,7.0,84,0.00,,,0.00,VWS V14.01,2013-08-10 15:15:00,
2013-08-10 10:16:00,64.2,56.0,30.01,SSW,201,1.0,2.0,75,0.00,,,0.00,VWS V14.01,2013-08-10 15:16:00,
2013-08-10 10:21:00,64.5,55.2,30.01,South,169,5.0,5.0,72,0.00,,,0.00,VWS V14.01,2013-08-10 15:21:00,
2013-08-10 10:26:00,65.1,55.8,30.01,SSW,213,3.0,5.0,72,0.00,,,0.00,VWS V14.01,2013-08-10 15:26:00,
2013-08-10 10:30:00,61.4,55.4,30.01,SSW,194,5.0,7.0,81,0.00,,,0.00,VWS V14.01,2013-08-10 15:30:00,
2013-08-10 10:31:00,65.3,56.3,30.01,South,186,4.0,4.0,73,0.00,,,0.00,VWS V14.01,2013-08-10 15:31:00,
2013-08-10 10:36:00,65.3,54.8,30.01,SSW,195,3.0,4.0,69,0.00,,,0.00,VWS V14.01,2013-08-10 15:36:00,
2013-08-10 10:41:00,65.2,55.5,30.01,South,176,2.0,4.0,71,0.00,,,0.00,VWS V14.01,2013-08-10 15:41:00,
2013-08-10 10:45:00,62.6,56.2,30.01,SSW,213,2.0,9.0,80,0.00,,,0.00,VWS V14.01,2013-08-10 15:45:00,
2013-08-10 10:46:00,65.1,53.8,30.01,SSE,150,3.0,3.0,67,0.00,,,0.00,VWS V14.01,2013-08-10 15:46:00,
2013-08-10 10:51:00,65.1,54.6,30.01,WSW,239,0.0,4.0,69,0.00,,,0.00,VWS V14.01,2013-08-10 15:51:00,
2013-08-10 10:56:00,65.1,54.6,30.01,NW,313,1.0,4.0,69,0.00,,,0.00,VWS V14.01,2013-08-10 15:56:00,
2013-08-10 11:00:00,63.3,55.5,30.01,SSW,211,2.0,7.0,76,0.00,,,0.00,VWS V14.01,2013-08-10 16:00:00,
2013-08-10 11:01:00,64.9,54.4,30.00,South,174,1.0,5.0,69,0.00,,,0.00,VWS V14.01,2013-08-10 16:01:00,
2013-08-10 11:06:00,65.3,55.9,30.00,ESE,107,1.0,5.0,72,0.00,,,0.00,VWS V14.01,2013-08-10 16:06:00,
2013-08-10 11:11:00,66.1,55.1,30.00,WSW,237,2.0,5.0,68,0.00,,,0.00,VWS V14.01,2013-08-10 16:11:00,
2013-08-10 11:15:00,64.1,55.9,30.01,South,187,1.0,4.0,75,0.00,,,0.00,VWS V14.01,2013-08-10 16:15:00,
2013-08-10 11:16:00,66.6,55.6,30.00,SW,227,1.0,2.0,68,0.00,,,0.00,VWS V14.01,2013-08-10 16:16:00,
2013-08-10 11:21:00,66.6,55.2,30.00,SSW,196,1.0,4.0,67,0.00,,,0.00,VWS V14.01,2013-08-10 16:21:00,
2013-08-10 11:26:00,66.5,55.1,30.00,SW,221,1.0,4.0,67,0.00,,,0.00,VWS V14.01,2013-08-10 16:26:00,
2013-08-10 11:30:00,65.3,55.5,30.01,WSW,250,2.0,5.0,71,0.00,,,0.00,VWS V14.01,2013-08-10 16:30:00,
2013-08-10 11:31:00,66.3,54.9,30.00,ESE,116,1.0,3.0,67,0.00,,,0.00,VWS V14.01,2013-08-10 16:31:00,
2013-08-10 11:36:00,66.2,54.8,30.00,ESE,111,1.0,4.0,67,0.00,,,0.00,VWS V14.01,2013-08-10 16:36:00,
2013-08-10 11:41:00,66.3,55.7,30.00,South,180,1.0,4.0,69,0.00,,,0.00,VWS V14.01,2013-08-10 16:41:00,
2013-08-10 11:45:00,65.1,53.8,30.01,SE,137,3.0,5.0,67,0.00,,,0.00,VWS V14.01,2013-08-10 16:45:00,
2013-08-10 11:46:00,66.5,55.1,30.00,SSE,150,3.0,4.0,67,0.00,,,0.00,VWS V14.01,2013-08-10 16:46:00,
2013-08-10 11:51:00,66.9,55.1,29.99,South,180,1.0,5.0,66,0.00,,,0.00,VWS V14.01,2013-08-10 16:51:00,
2013-08-10 11:56:00,67.5,55.2,29.99,SE,129,1.0,6.0,65,0.00,,,0.00,VWS V14.01,2013-08-10 16:56:00,
2013-08-10 12:00:00,64.9,54.4,30.00,SSW,202,5.0,5.0,69,0.00,,,0.00,VWS V14.01,2013-08-10 17:00:00,
2013-08-10 12:01:00,68.4,58.1,29.99,East,98,1.0,3.0,70,0.00,,,0.00,VWS V14.01,2013-08-10 17:01:00,
2013-08-10 12:06:00,69.2,57.2,29.99,NNE,24,3.0,5.0,66,0.00,,,0.00,VWS V14.01,2013-08-10 17:06:00,
2013-08-10 12:10:00,69.0,56.6,29.99,ESE,103,3.0,5.0,65,0.00,,,0.00,VWS V14.01,2013-08-10 17:10:00,
2013-08-10 12:15:00,68.5,55.7,29.98,ESE,108,4.0,4.0,64,0.00,,,0.00,VWS V14.01,2013-08-10 17:15:00,
2013-08-10 12:20:00,68.4,55.6,29.99,SE,129,7.0,7.0,64,0.00,,,0.00,VWS V14.01,2013-08-10 17:20:00,
2013-08-10 12:25:00,68.3,56.8,29.99,South,179,3.0,9.0,67,0.00,,,0.00,VWS V14.01,2013-08-10 17:25:00,
2013-08-10 12:30:00,67.7,55.0,29.98,SW,223,2.0,3.0,64,0.00,,,0.00,VWS V14.01,2013-08-10 17:30:00,
2013-08-10 12:35:00,67.2,54.9,29.98,SSE,162,5.0,8.0,65,0.00,,,0.00,VWS V14.01,2013-08-10 17:35:00,
2013-08-10 12:40:00,67.8,56.3,29.98,ESE,122,7.0,8.0,67,0.00,,,0.00,VWS V14.01,2013-08-10 17:40:00,
2013-08-10 12:45:00,67.9,56.0,29.98,East,92,2.0,2.0,66,0.00,,,0.00,VWS V14.01,2013-08-10 17:45:00,
2013-08-10 12:50:00,68.6,56.7,29.98,SE,137,3.0,9.0,66,0.00,,,0.00,VWS V14.01,2013-08-10 17:50:00,
2013-08-10 12:55:00,69.0,56.6,29.98,SSE,153,1.0,9.0,65,0.00,,,0.00,VWS V14.01,2013-08-10 17:55:00,
2013-08-10 13:00:00,69.2,56.4,29.98,ESE,114,3.0,4.0,64,0.00,,,0.00,VWS V14.01,2013-08-10 18:00:00,
2013-08-10 13:05:00,69.1,56.3,29.97,ENE,68,2.0,8.0,64,0.00,,,0.00,VWS V14.01,2013-08-10 18:05:00,
2013-08-10 13:10:00,68.8,56.4,29.97,East,88,2.0,8.0,65,0.00,,,0.00,VWS V14.01,2013-08-10 18:10:00,
2013-08-10 13:15:00,69.2,56.0,29.97,SE,144,5.0,7.0,63,0.00,,,0.00,VWS V14.01,2013-08-10 18:15:00,
2013-08-10 13:20:00,69.0,55.8,29.97,East,85,6.0,7.0,63,0.00,,,0.00,VWS V14.01,2013-08-10 18:20:00,
2013-08-10 13:25:00,69.0,55.8,29.97,SE,134,3.0,7.0,63,0.00,,,0.00,VWS V14.01,2013-08-10 18:25:00,
2013-08-10 13:30:00,69.3,56.5,29.97,South,179,7.0,7.0,64,0.00,,,0.00,VWS V14.01,2013-08-10 18:30:00,
2013-08-10 13:35:00,69.5,57.1,29.97,SSE,163,2.0,7.0,65,0.00,,,0.00,VWS V14.01,2013-08-10 18:35:00,
2013-08-10 13:40:00,70.2,57.3,29.96,South,171,0.0,7.0,64,0.00,,,0.00,VWS V14.01,2013-08-10 18:40:00,
2013-08-10 13:45:00,70.5,57.2,29.96,South,190,2.0,2.0,63,0.00,,,0.00,VWS V14.01,2013-08-10 18:45:00,
2013-08-10 13:50:00,70.4,57.5,29.96,SE,137,3.0,5.0,64,0.00,,,0.00,VWS V14.01,2013-08-10 18:50:00,
2013-08-10 13:55:00,70.3,57.0,29.96,ESE,102,3.0,6.0,63,0.00,,,0.00,VWS V14.01,2013-08-10 18:55:00,
2013-08-10 14:00:00,70.0,55.8,29.96,SSE,162,1.0,1.0,61,0.00,,,0.00,VWS V14.01,2013-08-10 19:00:00,
2013-08-10 14:05:00,69.7,56.9,29.96,West,272,2.0,3.0,64,0.00,,,0.00,VWS V14.01,2013-08-10 19:05:00,
2013-08-10 14:10:00,69.5,55.8,29.95,SSE,157,1.0,3.0,62,0.00,,,0.00,VWS V14.01,2013-08-10 19:10:00,
2013-08-10 14:15:00,69.6,56.3,29.95,East,97,2.0,2.0,63,0.00,,,0.00,VWS V14.01,2013-08-10 19:15:00,
2013-08-10 14:20:00,69.6,56.8,29.95,South,178,0.0,5.0,64,0.00,,,0.00,VWS V14.01,2013-08-10 19:20:00,
2013-08-10 14:25:00,69.7,56.9,29.95,WNW,288,2.0,5.0,64,0.00,,,0.00,VWS V14.01,2013-08-10 19:25:00,
2013-08-10 14:30:00,70.0,58.0,29.95,NNW,329,1.0,2.0,66,0.00,,,0.00,VWS V14.01,2013-08-10 19:30:00,
2013-08-10 14:35:00,70.4,58.4,29.95,NNW,336,1.0,2.0,66,0.00,,,0.00,VWS V14.01,2013-08-10 19:35:00,
2013-08-10 14:40:00,70.6,59.4,29.95,North,9,0.0,2.0,68,0.00,,,0.00,VWS V14.01,2013-08-10 19:40:00,
2013-08-10 14:45:00,70.4,60.0,29.95,NNW,334,2.0,2.0,70,0.00,,,0.00,VWS V14.01,2013-08-10 19:45:00,
2013-08-10 14:50:00,70.1,59.3,29.95,WNW,300,1.0,5.0,69,0.00,,,0.00,VWS V14.01,2013-08-10 19:50:00,
2013-08-10 14:55:00,70.5,59.3,29.95,North,351,1.0,5.0,68,0.00,,,0.00,VWS V14.01,2013-08-10 19:55:00,
2013-08-10 15:00:00,71.1,59.5,29.94,NNE,22,3.0,4.0,67,0.00,,,0.00,VWS V14.01,2013-08-10 20:00:00,
2013-08-10 15:05:00,71.7,58.3,29.94,NE,43,1.0,5.0,63,0.00,,,0.00,VWS V14.01,2013-08-10 20:05:00,
2013-08-10 15:10:00,71.8,59.7,29.94,NNE,15,1.0,5.0,66,0.00,,,0.00,VWS V14.01,2013-08-10 20:10:00,
2013-08-10 15:15:00,71.8,58.8,29.94,North,357,2.0,4.0,64,0.00,,,0.00,VWS V14.01,2013-08-10 20:15:00,
2013-08-10 15:20:00,72.1,57.8,29.93,NNW,334,2.0,6.0,61,0.00,,,0.00,VWS V14.01,2013-08-10 20:20:00,
2013-08-10 15:25:00,72.3,61.0,29.94,North,2,1.0,6.0,68,0.00,,,0.00,VWS V14.01,2013-08-10 20:25:00,
2013-08-10 15:30:00,72.0,58.6,29.94,ENE,68,4.0,5.0,63,0.00,,,0.00,VWS V14.01,2013-08-10 20:30:00,
2013-08-10 15:35:00,71.5,58.6,29.94,NE,40,3.0,6.0,64,0.00,,,0.00,VWS V14.01,2013-08-10 20:35:00,
2013-08-10 15:40:00,71.0,59.4,29.94,NNE,12,1.0,6.0,67,0.00,,,0.00,VWS V14.01,2013-08-10 20:40:00,
2013-08-10 15:45:00,70.8,60.0,29.93,NNE,19,2.0,2.0,69,0.00,,,0.00,VWS V14.01,2013-08-10 20:45:00,
2013-08-10 15:50:00,70.5,58.0,29.93,NE,51,2.0,3.0,65,0.00,,,0.00,VWS V14.01,2013-08-10 20:50:00,
2013-08-10 15:55:00,70.5,58.0,29.93,ENE,63,0.0,3.0,65,0.00,,,0.00,VWS V14.01,2013-08-10 20:55:00,
2013-08-10 16:00:00,70.7,56.9,29.93,SE,140,2.0,3.0,62,0.00,,,0.00,VWS V14.01,2013-08-10 21:00:00,
2013-08-10 16:05:00,70.8,57.0,29.93,SSE,151,0.0,3.0,62,0.00,,,0.00,VWS V14.01,2013-08-10 21:05:00,
2013-08-10 16:10:00,71.2,58.3,29.93,SSE,151,1.0,3.0,64,0.00,,,0.00,VWS V14.01,2013-08-10 21:10:00,
2013-08-10 16:15:00,71.3,57.0,29.93,West,270,2.0,2.0,61,0.00,,,0.00,VWS V14.01,2013-08-10 21:15:00,
2013-08-10 16:20:00,71.1,59.0,29.93,North,354,1.0,3.0,66,0.00,,,0.00,VWS V14.01,2013-08-10 21:20:00,
2013-08-10 16:25:00,70.8,60.8,29.94,NNE,17,0.0,4.0,71,0.00,,,0.00,VWS V14.01,2013-08-10 21:25:00,
2013-08-10 16:30:00,70.5,58.9,29.94,NNE,17,1.0,1.0,67,0.00,,,0.00,VWS V14.01,2013-08-10 21:30:00,
2013-08-10 16:35:00,70.5,58.9,29.93,NNE,17,0.0,2.0,67,0.00,,,0.00,VWS V14.01,2013-08-10 21:35:00,
2013-08-10 16:40:00,70.4,58.0,29.94,NNE,17,0.0,2.0,65,0.00,,,0.00,VWS V14.01,2013-08-10 21:40:00,
2013-08-10 16:45:00,70.6,59.0,29.93,NNE,17,1.0,1.0,67,0.00,,,0.00,VWS V14.01,2013-08-10 21:45:00,
2013-08-10 16:50:00,70.6,59.4,29.93,NW,325,0.0,2.0,68,0.00,,,0.00,VWS V14.01,2013-08-10 21:50:00,
2013-08-10 16:55:00,70.4,58.4,29.93,NW,325,1.0,2.0,66,0.00,,,0.00,VWS V14.01,2013-08-10 21:55:00,
2013-08-10 17:00:00,70.2,57.8,29.93,NW,325,1.0,1.0,65,0.00,,,0.00,VWS V14.01,2013-08-10 22:00:00,
2013-08-10 17:05:00,70.3,59.5,29.93,North,355,2.0,2.0,69,0.00,,,0.00,VWS V14.01,2013-08-10 22:05:00,
2013-08-10 17:10:00,70.1,57.7,29.93,NNW,346,2.0,3.0,65,0.00,,,0.00,VWS V14.01,2013-08-10 22:10:00,
2013-08-10 17:15:00,70.2,58.6,29.93,NW,320,1.0,2.0,67,0.00,,,0.00,VWS V14.01,2013-08-10 22:15:00,
2013-08-10 17:20:00,70.3,59.1,29.93,NNW,346,1.0,3.0,68,0.00,,,0.00,VWS V14.01,2013-08-10 22:20:00,
2013-08-10 17:25:00,70.0,58.4,29.92,NNW,327,1.0,3.0,67,0.00,,,0.00,VWS V14.01,2013-08-10 22:25:00,
2013-08-10 17:30:00,69.7,58.6,29.92,North,360,2.0,3.0,68,0.00,,,0.00,VWS V14.01,2013-08-10 22:30:00,
2013-08-10 17:35:00,69.2,58.5,29.92,WNW,291,2.0,6.0,69,0.00,,,0.00,VWS V14.01,2013-08-10 22:35:00,
2013-08-10 17:40:00,68.6,57.9,29.92,North,5,3.0,6.0,69,0.00,,,0.00,VWS V14.01,2013-08-10 22:40:00,
2013-08-10 17:45:00,68.3,58.8,29.92,NE,41,3.0,3.0,72,0.00,,,0.00,VWS V14.01,2013-08-10 22:45:00,
2013-08-10 17:50:00,67.7,58.6,29.92,North,1,1.0,4.0,73,0.00,,,0.00,VWS V14.01,2013-08-10 22:50:00,
2013-08-10 17:55:00,67.3,58.2,29.92,North,10,2.0,7.0,73,0.00,,,0.00,VWS V14.01,2013-08-10 22:55:00,
2013-08-10 18:00:00,66.9,58.6,29.92,North,9,4.0,4.0,75,0.00,,,0.00,VWS V14.01,2013-08-10 23:00:00,
2013-08-10 18:05:00,66.6,58.0,29.92,NNE,19,3.0,4.0,74,0.00,,,0.00,VWS V14.01,2013-08-10 23:05:00,
2013-08-10 18:10:00,66.3,58.0,29.92,North,358,4.0,6.0,75,0.00,,,0.00,VWS V14.01,2013-08-10 23:10:00,
2013-08-10 18:11:00,66.3,58.0,29.92,North,358,2.0,6.0,75,0.00,,,0.00,VWS V14.01,2013-08-10 23:11:00,
2013-08-10 18:15:00,70.2,58.6,29.93,NW,315,2.0,3.0,67,0.00,,,0.00,VWS V14.01,2013-08-10 23:15:00,
2013-08-10 18:16:00,66.0,57.8,29.91,North,11,1.0,3.0,75,0.00,,,0.00,VWS V14.01,2013-08-10 23:16:00,
2013-08-10 18:21:00,65.8,57.5,29.92,NNE,27,5.0,5.0,75,0.00,,,0.00,VWS V14.01,2013-08-10 23:21:00,
2013-08-10 18:26:00,65.7,57.5,29.91,North,357,4.0,5.0,75,0.00,,,0.00,VWS V14.01,2013-08-10 23:26:00,
2013-08-10 18:30:00,69.8,58.7,29.92,North,351,2.0,3.0,68,0.00,,,0.00,VWS V14.01,2013-08-10 23:30:00,
2013-08-10 18:31:00,65.8,57.5,29.91,NNE,15,2.0,5.0,75,0.00,,,0.00,VWS V14.01,2013-08-10 23:31:00,
2013-08-10 18:35:00,66.0,57.8,29.91,NNE,18,2.0,6.0,75,0.00,,,0.00,VWS V14.01,2013-08-10 23:35:00,
2013-08-10 18:40:00,66.0,57.4,29.90,North,11,6.0,7.0,74,0.00,,,0.00,VWS V14.01,2013-08-10 23:40:00,
2013-08-10 18:45:00,66.2,57.6,29.90,NNE,23,6.0,6.0,74,0.00,,,0.00,VWS V14.01,2013-08-10 23:45:00,
2013-08-10 18:50:00,66.2,56.8,29.90,North,9,1.0,8.0,72,0.00,,,0.00,VWS V14.01,2013-08-10 23:50:00,
2013-08-10 18:55:00,66.1,57.1,29.90,NNE,21,5.0,8.0,73,0.00,,,0.00,VWS V14.01,2013-08-10 23:55:00,
2013-08-10 19:00:00,66.1,57.1,29.91,NNE,13,2.0,3.0,73,0.00,,,0.00,VWS V14.01,2013-08-11 00:00:00,
2013-08-10 19:05:00,66.1,57.1,29.90,NNE,32,2.0,5.0,73,0.00,,,0.00,VWS V14.01,2013-08-11 00:05:00,
2013-08-10 19:10:00,66.2,57.2,29.90,North,356,2.0,5.0,73,0.00,,,0.00,VWS V14.01,2013-08-11 00:10:00,
2013-08-10 19:15:00,66.2,57.6,29.90,NE,40,3.0,3.0,74,0.00,,,0.00,VWS V14.01,2013-08-11 00:15:00,
2013-08-10 19:20:00,66.2,57.6,29.89,ENE,57,0.0,4.0,74,0.00,,,0.00,VWS V14.01,2013-08-11 00:20:00,
2013-08-10 19:25:00,66.2,57.2,29.89,NE,42,1.0,4.0,73,0.00,,,0.00,VWS V14.01,2013-08-11 00:25:00,
2013-08-10 19:30:00,66.1,57.1,29.89,East,94,3.0,3.0,73,0.00,,,0.00,VWS V14.01,2013-08-11 00:30:00,
2013-08-10 19:35:00,66.1,57.1,29.90,ENE,59,2.0,6.0,73,0.00,,,0.00,VWS V14.01,2013-08-11 00:35:00,
2013-08-10 19:40:00,66.1,57.1,29.89,ENE,78,1.0,6.0,73,0.00,,,0.00,VWS V14.01,2013-08-11 00:40:00,
2013-08-10 19:45:00,66.1,56.7,29.89,ENE,58,2.0,2.0,72,0.00,,,0.00,VWS V14.01,2013-08-11 00:45:00,
2013-08-10 19:50:00,66.1,56.7,29.89,East,91,2.0,3.0,72,0.00,,,0.00,VWS V14.01,2013-08-11 00:50:00,
2013-08-10 19:55:00,66.2,57.2,29.89,NE,55,2.0,4.0,73,0.00,,,0.00,VWS V14.01,2013-08-11 00:55:00,
2013-08-10 20:00:00,65.9,57.3,29.89,NNE,26,2.0,3.0,74,0.00,,,0.00,VWS V14.01,2013-08-11 01:00:00,
2013-08-10 20:05:00,65.6,57.0,29.89,NNE,32,2.0,4.0,74,0.00,,,0.00,VWS V14.01,2013-08-11 01:05:00,
2013-08-10 20:10:00,65.4,57.5,29.89,North,10,1.0,4.0,76,0.00,,,0.00,VWS V14.01,2013-08-11 01:10:00,
2013-08-10 20:15:00,65.2,57.3,29.90,NW,324,2.0,2.0,76,0.00,,,0.00,VWS V14.01,2013-08-11 01:15:00,
2013-08-10 20:20:00,65.1,57.2,29.89,WNW,300,2.0,5.0,76,0.00,,,0.00,VWS V14.01,2013-08-11 01:20:00,
2013-08-10 20:25:00,65.0,57.2,29.89,NNE,16,3.0,7.0,76,0.00,,,0.00,VWS V14.01,2013-08-11 01:25:00,
2013-08-10 20:30:00,64.9,56.3,29.89,North,350,2.0,4.0,74,0.00,,,0.00,VWS V14.01,2013-08-11 01:30:00,
2013-08-10 20:35:00,64.8,56.2,29.89,North,3,3.0,8.0,74,0.00,,,0.00,VWS V14.01,2013-08-11 01:35:00,
2013-08-10 20:40:00,64.7,56.5,29.89,NNE,19,3.0,11.0,75,0.00,,,0.00,VWS V14.01,2013-08-11 01:40:00,
2013-08-10 20:45:00,64.4,56.6,29.89,NNW,329,4.0,9.0,76,0.00,,,0.00,VWS V14.01,2013-08-11 01:45:00,
2013-08-10 20:50:00,64.1,56.6,29.90,North,6,3.0,9.0,77,0.00,,,0.00,VWS V14.01,2013-08-11 01:50:00,
2013-08-10 20:55:00,63.8,56.7,29.90,NNW,343,12.0,12.0,78,0.00,,,0.00,VWS V14.01,2013-08-11 01:55:00,
2013-08-10 21:00:00,63.3,56.2,29.90,NNE,13,2.0,7.0,78,0.00,,,0.00,VWS V14.01,2013-08-11 02:00:00,
2013-08-10 21:05:00,62.9,55.8,29.90,NE,34,4.0,8.0,78,0.00,,,0.00,VWS V14.01,2013-08-11 02:05:00,
2013-08-10 21:10:00,62.7,56.0,29.91,North,351,2.0,8.0,79,0.00,,,0.00,VWS V14.01,2013-08-11 02:10:00,
2013-08-10 21:15:00,62.5,55.8,29.91,North,352,3.0,3.0,79,0.00,,,0.00,VWS V14.01,2013-08-11 02:15:00,
2013-08-10 21:20:00,62.3,55.6,29.91,NNE,28,3.0,8.0,79,0.00,,,0.00,VWS V14.01,2013-08-11 02:20:00,
2013-08-10 21:25:00,62.2,55.5,29.91,NNE,27,4.0,10.0,79,0.00,,,0.00,VWS V14.01,2013-08-11 02:25:00,
2013-08-10 21:30:00,62.2,55.5,29.91,North,352,2.0,3.0,79,0.00,,,0.00,VWS V14.01,2013-08-11 02:30:00,
2013-08-10 21:35:00,62.2,55.9,29.91,NNE,14,5.0,7.0,80,0.00,,,0.00,VWS V14.01,2013-08-11 02:35:00,
2013-08-10 21:40:00,62.1,55.8,29.91,North,7,1.0,7.0,80,0.00,,,0.00,VWS V14.01,2013-08-11 02:40:00,
2013-08-10 21:45:00,62.0,56.0,29.92,North,3,4.0,4.0,81,0.00,,,0.00,VWS V14.01,2013-08-11 02:45:00,
2013-08-10 21:50:00,62.0,56.0,29.92,North,360,5.0,7.0,81,0.00,,,0.00,VWS V14.01,2013-08-11 02:50:00,
2013-08-10 21:55:00,62.0,56.0,29.92,North,1,1.0,7.0,81,0.00,,,0.00,VWS V14.01,2013-08-11 02:55:00,
2013-08-10 22:00:00,63.3,56.2,29.90,North,1,10.0,12.0,78,0.00,,,0.00,VWS V14.01,2013-08-11 03:00:00,
2013-08-10 22:01:00,61.8,56.2,29.92,North,7,3.0,5.0,82,0.00,,,0.00,VWS V14.01,2013-08-11 03:01:00,
2013-08-10 22:06:00,61.8,56.2,29.91,North,350,5.0,6.0,82,0.00,,,0.00,VWS V14.01,2013-08-11 03:06:00,
2013-08-10 22:11:00,61.7,56.4,29.92,NW,323,2.0,6.0,83,0.00,,,0.00,VWS V14.01,2013-08-11 03:11:00,
2013-08-10 22:15:00,62.5,55.8,29.91,NNE,13,3.0,8.0,79,0.00,,,0.00,VWS V14.01,2013-08-11 03:15:00,
2013-08-10 22:16:00,61.5,56.2,29.92,NNE,13,3.0,5.0,83,0.00,,,0.00,VWS V14.01,2013-08-11 03:16:00,
2013-08-10 22:21:00,61.3,56.0,29.92,North,1,7.0,7.0,83,0.00,,,0.00,VWS V14.01,2013-08-11 03:21:00,
2013-08-10 22:26:00,61.2,56.2,29.92,NNE,20,3.0,7.0,84,0.00,,,0.00,VWS V14.01,2013-08-11 03:26:00,
2013-08-10 22:30:00,62.2,55.5,29.91,North,352,3.0,10.0,79,0.00,,,0.00,VWS V14.01,2013-08-11 03:30:00,
2013-08-10 22:31:00,61.2,56.2,29.93,North,354,1.0,2.0,84,0.00,,,0.00,VWS V14.01,2013-08-11 03:31:00,
2013-08-10 22:36:00,61.1,56.1,29.93,North,354,2.0,5.0,84,0.00,,,0.00,VWS V14.01,2013-08-11 03:36:00,
2013-08-10 22:41:00,61.1,56.1,29.93,NNE,19,0.0,5.0,84,0.00,,,0.00,VWS V14.01,2013-08-11 03:41:00,
2013-08-10 22:45:00,62.0,56.0,29.91,NNE,28,2.0,8.0,81,0.00,,,0.00,VWS V14.01,2013-08-11 03:45:00,
2013-08-10 22:47:00,61.1,56.5,29.93,NNW,345,2.0,4.0,85,0.00,,,0.00,VWS V14.01,2013-08-11 03:47:00,
2013-08-10 22:52:00,60.9,56.3,29.93,North,1,1.0,4.0,85,0.00,,,0.00,VWS V14.01,2013-08-11 03:52:00,
2013-08-10 22:57:00,60.9,56.6,29.93,North,353,2.0,5.0,86,0.00,,,0.00,VWS V14.01,2013-08-11 03:57:00,
2013-08-10 23:00:00,61.9,56.2,29.92,NNE,25,6.0,7.0,82,0.00,,,0.00,VWS V14.01,2013-08-11 04:00:00,
2013-08-10 23:01:00,60.8,56.5,29.93,North,350,3.0,3.0,86,0.00,,,0.00,VWS V14.01,2013-08-11 04:01:00,
2013-08-10 23:06:00,60.7,56.4,29.93,North,357,1.0,4.0,86,0.00,,,0.00,VWS V14.01,2013-08-11 04:06:00,
2013-08-10 23:11:00,60.6,56.3,29.93,NNW,344,0.0,4.0,86,0.00,,,0.00,VWS V14.01,2013-08-11 04:11:00,
2013-08-10 23:15:00,61.5,56.2,29.92,NNE,19,3.0,6.0,83,0.00,,,0.00,VWS V14.01,2013-08-11 04:15:00,
2013-08-10 23:16:00,60.5,56.5,29.93,North,7,1.0,2.0,87,0.00,,,0.00,VWS V14.01,2013-08-11 04:16:00,
2013-08-10 23:21:00,60.5,56.5,29.94,North,353,4.0,4.0,87,0.00,,,0.00,VWS V14.01,2013-08-11 04:21:00,
2013-08-10 23:26:00,60.5,56.5,29.94,NNW,347,1.0,4.0,87,0.00,,,0.00,VWS V14.01,2013-08-11 04:26:00,
2013-08-10 23:30:00,61.2,56.2,29.92,NNE,12,1.0,7.0,84,0.00,,,0.00,VWS V14.01,2013-08-11 04:30:00,
2013-08-10 23:31:00,60.5,56.8,29.94,NNW,345,2.0,4.0,88,0.00,,,0.00,VWS V14.01,2013-08-11 04:31:00,
2013-08-10 23:36:00,60.5,56.8,29.94,North,9,0.0,4.0,88,0.00,,,0.00,VWS V14.01,2013-08-11 04:36:00,
2013-08-10 23:41:00,60.5,56.8,29.93,North,357,1.0,4.0,88,0.00,,,0.00,VWS V14.01,2013-08-11 04:41:00,
2013-08-10 23:45:00,61.1,56.5,29.93,NNW,330,2.0,5.0,85,0.00,,,0.00,VWS V14.01,2013-08-11 04:45:00,
2013-08-10 23:46:00,60.4,56.7,29.93,North,354,1.0,2.0,88,0.00,,,0.00,VWS V14.01,2013-08-11 04:46:00,
2013-08-10 23:51:00,60.3,56.6,29.93,NNW,338,1.0,2.0,88,0.00,,,0.00,VWS V14.01,2013-08-11 04:51:00,
2013-08-10 23:56:00,60.2,56.5,29.93,North,359,1.0,4.0,88,0.00,,,0.00,VWS V14.01,2013-08-11 04:56:00,